Time;durP1;ratioP1;P1;durP2;ratioP2;P2;SDS_P1;SDS_P2;PMS_P1;PMS_P2;Temp;Humidity;BMP_temperature;BMP_pressure;BME280_temperature;BME280_humidity;BME280_pressure;Samples;Min_cycle;Max_cycle;Signal;HPM_P1;HPM_P2
2021/11/25 00:01:38;;;;;;;29.73;17.40;;;9.50;99.90;;;;;;6042067;23;20045;-81
2021/11/25 00:04:05;;;;;;;25.08;15.65;;;9.50;99.90;;;;;;6042805;23;20356;-82
2021/11/25 00:06:38;;;;;;;25.25;16.00;;;9.50;99.90;;;;;;6068108;23;20085;-83
2021/11/25 00:09:05;;;;;;;22.77;15.40;;;9.40;99.90;;;;;;6067061;23;20054;-80
2021/11/25 00:11:33;;;;;;;24.63;15.48;;;9.40;99.90;;;;;;6068369;23;20145;-80
2021/11/25 00:14:00;;;;;;;25.35;15.77;;;9.40;99.90;;;;;;6067944;23;20026;-80
2021/11/25 00:16:28;;;;;;;25.25;15.32;;;9.40;99.90;;;;;;6067960;23;20023;-80
2021/11/25 00:18:56;;;;;;;25.15;15.27;;;9.40;99.90;;;;;;6018851;23;20025;-82
2021/11/25 00:21:24;;;;;;;28.42;15.73;;;9.40;99.90;;;;;;6043059;23;20390;-88
2021/11/25 00:23:52;;;;;;;23.33;15.27;;;9.40;99.90;;;;;;6018607;23;20023;-81
2021/11/25 00:26:19;;;;;;;24.67;15.40;;;9.40;99.90;;;;;;6041869;23;20082;-83
2021/11/25 00:28:47;;;;;;;22.65;14.93;;;9.50;99.90;;;;;;6065837;23;20019;-85
2021/11/25 00:31:14;;;;;;;31.67;15.95;;;9.40;99.90;;;;;;6042572;23;20097;-81
2021/11/25 00:33:41;;;;;;;24.10;15.95;;;9.40;99.90;;;;;;6042023;23;20019;-86
2021/11/25 00:36:09;;;;;;;21.20;14.18;;;9.40;99.90;;;;;;6018762;23;20023;-80
2021/11/25 00:38:36;;;;;;;23.48;15.50;;;9.40;99.90;;;;;;6018386;23;20046;-86
2021/11/25 00:41:03;;;;;;;26.70;15.70;;;9.40;99.90;;;;;;6041880;23;20057;-84
2021/11/25 00:43:31;;;;;;;23.67;16.83;;;9.40;99.90;;;;;;6041773;23;20050;-80
2021/11/25 00:45:58;;;;;;;25.05;16.20;;;9.30;99.90;;;;;;6065798;23;20030;-82
2021/11/25 00:48:26;;;;;;;23.42;15.43;;;9.40;99.90;;;;;;6042573;23;20038;-86
2021/11/25 00:50:53;;;;;;;24.35;14.85;;;9.40;99.90;;;;;;6042080;23;20055;-81
2021/11/25 00:53:21;;;;;;;22.33;15.00;;;9.40;99.90;;;;;;6018224;23;20042;-84
2021/11/25 00:55:48;;;;;;;23.90;14.15;;;9.30;99.90;;;;;;6042080;23;20027;-83
2021/11/25 00:58:17;;;;;;;25.25;14.82;;;9.30;99.90;;;;;;6019380;23;20097;-84
2021/11/25 01:00:47;;;;;;;25.63;15.93;;;9.30;99.90;;;;;;6068692;23;20046;-87
2021/11/25 01:03:15;;;;;;;20.58;15.10;;;9.20;99.90;;;;;;6018650;23;20030;-85
2021/11/25 01:05:46;;;;;;;25.05;16.17;;;9.20;99.90;;;;;;6067677;23;20019;-86
2021/11/25 01:08:18;;;;;;;24.95;14.95;;;9.10;99.90;;;;;;6042452;23;20018;-86
2021/11/25 01:11:34;;;;;;;24.30;15.50;;;9.20;99.90;;;;;;6053003;23;20026;-85
2021/11/25 01:14:04;;;;;;;24.33;15.13;;;9.30;99.90;;;;;;6018501;23;20048;-85
2021/11/25 01:16:31;;;;;;;;;;;9.30;99.90;;;;;;6020326;23;20051;-85
2021/11/25 01:18:59;;;;;;;25.33;15.45;;;9.30;99.90;;;;;;6065853;23;19925;-87
2021/11/25 01:21:26;;;;;;;22.60;14.73;;;9.30;99.90;;;;;;6019748;23;20043;-88
2021/11/25 01:24:00;;;;;;;23.63;14.38;;;9.30;99.90;;;;;;6019820;23;20030;-90
2021/11/25 01:27:18;;;;;;;24.40;15.88;;;9.30;99.90;;;;;;6019526;23;20030;-85
2021/11/25 01:30:11;;;;;;;23.00;15.23;;;9.30;99.90;;;;;;6019411;23;20019;-86
2021/11/25 01:32:41;;;;;;;22.65;15.18;;;9.30;99.90;;;;;;6013804;23;20027;-86
2021/11/25 01:35:59;;;;;;;22.15;15.20;;;9.30;99.90;;;;;;6042186;23;20030;-85
2021/11/25 01:38:28;;;;;;;23.88;14.50;;;9.30;99.90;;;;;;6067118;23;20053;-87
2021/11/25 01:41:08;;;;;;;23.67;15.30;;;9.30;99.90;;;;;;6018827;23;20026;-87
2021/11/25 01:44:27;;;;;;;21.90;14.20;;;9.30;99.90;;;;;;6041901;23;20042;-84
2021/11/25 01:47:23;;;;;;;23.30;14.60;;;9.30;99.90;;;;;;6017996;23;20047;-86
2021/11/25 01:49:55;;;;;;;22.95;14.82;;;9.20;99.90;;;;;;6041550;23;20015;-82
2021/11/25 02:00:58;;;;;;;30.45;16.88;;;9.20;99.90;;;;;;6066957;23;20025;-86
2021/11/25 02:04:05;;;;;;;27.15;17.08;;;9.20;99.90;;;;;;6018377;23;20444;-86
2021/11/25 02:07:03;;;;;;;24.00;16.35;;;9.20;99.90;;;;;;6041782;23;20023;-87
2021/11/25 02:09:30;;;;;;;25.80;16.65;;;9.20;99.90;;;;;;6042340;23;20049;-88
2021/11/25 02:11:58;;;;;;;29.77;16.92;;;9.20;99.90;;;;;;6041684;23;20042;-84
2021/11/25 02:14:28;;;;;;;27.00;17.13;;;9.20;99.90;;;;;;6041006;23;20105;-84
2021/11/25 02:16:58;;;;;;;25.52;16.08;;;9.20;99.90;;;;;;6041699;23;20035;-84
2021/11/25 02:19:27;;;;;;;24.33;16.40;;;9.20;99.90;;;;;;6041313;23;20023;-84
2021/11/25 02:27:07;;;;;;;25.52;15.90;;;9.20;99.90;;;;;;6066684;23;20083;-86
2021/11/25 02:30:04;;;;;;;23.85;16.05;;;9.20;99.90;;;;;;6067180;23;20412;-86
2021/11/25 02:32:45;;;;;;;27.17;17.17;;;9.10;99.90;;;;;;6042180;23;20330;-87
2021/11/25 02:35:21;;;;;;;26.85;17.15;;;9.20;99.90;;;;;;6017849;23;20043;-87
2021/11/25 02:37:50;;;;;;;25.23;16.75;;;9.20;99.90;;;;;;6044607;23;20030;-88
2021/11/25 02:40:25;;;;;;;25.70;17.25;;;9.10;99.90;;;;;;6019847;23;20027;-85
2021/11/25 02:46:40;;;;;;;29.58;19.08;;;9.10;99.90;;;;;;6068886;23;20019;-85
2021/11/25 02:49:08;;;;;;;32.17;19.15;;;9.10;99.90;;;;;;6008357;23;20047;-88
2021/11/25 02:51:35;;;;;;;31.17;18.77;;;9.20;99.90;;;;;;6044567;23;20035;-87
2021/11/25 02:54:03;;;;;;;29.20;18.63;;;9.20;99.90;;;;;;6044535;23;20129;-90
2021/11/25 02:56:39;;;;;;;35.17;19.42;;;9.20;99.90;;;;;;6047628;23;20019;-88
2021/11/25 03:00:02;;;;;;;31.98;19.70;;;9.10;99.90;;;;;;6067535;23;20090;-87
2021/11/25 03:02:30;;;;;;;31.13;19.08;;;9.20;99.90;;;;;;6019395;23;20106;-89
2021/11/25 03:05:00;;;;;;;31.88;19.17;;;9.20;99.90;;;;;;6043019;23;20029;-87
2021/11/25 03:07:28;;;;;;;30.73;19.30;;;9.10;99.90;;;;;;6020009;23;20034;-89
2021/11/25 03:10:07;;;;;;;33.75;20.02;;;9.10;99.90;;;;;;6020920;23;20029;-85
2021/11/25 03:12:34;;;;;;;31.80;20.33;;;9.10;99.90;;;;;;6067433;23;20026;-84
2021/11/25 03:15:05;;;;;;;28.58;19.73;;;9.20;99.90;;;;;;6019569;23;20106;-86
2021/11/25 03:17:32;;;;;;;32.15;19.90;;;9.20;99.90;;;;;;6018540;23;20471;-84
2021/11/25 03:20:04;;;;;;;29.92;19.10;;;9.20;99.90;;;;;;6018293;23;20019;-85
2021/11/25 03:39:44;;;;;;;31.55;19.55;;;9.10;99.90;;;;;;6031855;23;20046;-84
2021/11/25 03:42:17;;;;;;;34.38;21.58;;;9.20;99.90;;;;;;6018580;23;20079;-89
2021/11/25 03:44:46;;;;;;;31.58;21.33;;;9.20;99.90;;;;;;6020214;23;20581;-86
2021/11/25 03:47:25;;;;;;;37.03;21.45;;;9.10;99.90;;;;;;6068302;23;20074;-86
2021/11/25 03:50:06;;;;;;;32.80;20.85;;;9.10;99.90;;;;;;6043296;23;20015;-85
2021/11/25 03:52:39;;;;;;;35.47;21.40;;;9.10;99.90;;;;;;6044479;23;20465;-87
2021/11/25 04:08:06;;;;;;;38.80;22.98;;;9.10;99.90;;;;;;5980944;23;20031;-85
2021/11/25 04:10:34;;;;;;;36.15;22.50;;;9.00;99.90;;;;;;6068242;23;20138;-84
2021/11/25 04:13:02;;;;;;;32.95;21.48;;;9.00;99.90;;;;;;6069253;23;20019;-89
2021/11/25 04:15:32;;;;;;;35.78;22.88;;;9.10;99.90;;;;;;6070573;23;20397;-90
2021/11/25 04:17:59;;;;;;;33.30;23.08;;;9.20;99.90;;;;;;6070331;23;20019;-88
2021/11/25 04:20:27;;;;;;;37.72;22.48;;;9.20;99.90;;;;;;6024463;23;20027;-92
2021/11/25 04:40:21;;;;;;;32.33;20.20;;;9.00;99.90;;;;;;6095495;23;20018;-84
2021/11/25 04:43:39;;;;;;;32.00;21.63;;;9.10;99.90;;;;;;6095463;23;20021;-85
2021/11/25 04:46:08;;;;;;;28.75;19.00;;;9.10;99.90;;;;;;6048062;23;20097;-84
2021/11/25 04:48:35;;;;;;;33.28;21.65;;;9.10;99.90;;;;;;6096567;23;20029;-83
2021/11/25 04:51:09;;;;;;;29.95;20.55;;;8.90;99.90;;;;;;6094737;23;20025;-83
2021/11/25 05:06:35;;;;;;;30.58;18.95;;;9.10;99.90;;;;;;6096774;23;20046;-86
2021/11/25 05:09:04;;;;;;;31.67;20.45;;;9.00;99.90;;;;;;6072713;23;20109;-86
2021/11/25 05:11:31;;;;;;;29.98;19.13;;;9.00;99.90;;;;;;6099951;23;20030;-87
2021/11/25 05:13:58;;;;;;;32.72;19.90;;;9.00;99.90;;;;;;6125191;23;20018;-84
2021/11/25 05:16:26;;;;;;;28.95;19.73;;;9.00;99.90;;;;;;6100230;23;20028;-86
2021/11/25 05:18:57;;;;;;;27.65;18.27;;;9.00;99.90;;;;;;6100111;23;20026;-82
2021/11/25 05:21:25;;;;;;;34.33;20.20;;;9.00;99.90;;;;;;6124116;23;20078;-83
2021/11/25 05:23:52;;;;;;;33.05;20.77;;;9.10;99.90;;;;;;6099524;23;20022;-86
2021/11/25 05:26:31;;;;;;;29.83;20.58;;;9.10;99.90;;;;;;6077798;23;20022;-85
2021/11/25 05:28:59;;;;;;;28.13;18.58;;;9.10;99.90;;;;;;6100413;23;20065;-86
2021/11/25 05:31:26;;;;;;;30.75;18.38;;;9.10;99.90;;;;;;6075974;23;20029;-84
2021/11/25 05:33:53;;;;;;;28.73;18.58;;;9.10;99.90;;;;;;6125067;23;20022;-84
2021/11/25 05:36:21;;;;;;;28.10;17.92;;;9.10;99.90;;;;;;6099746;23;20022;-83
2021/11/25 05:38:48;;;;;;;32.72;18.15;;;9.10;99.90;;;;;;6099249;23;20093;-85
2021/11/25 05:41:15;;;;;;;26.33;17.67;;;9.10;99.90;;;;;;6124696;23;20048;-85
2021/11/25 05:44:12;;;;;;;31.60;18.85;;;9.00;99.90;;;;;;6125373;23;20029;-82
2021/11/25 05:46:40;;;;;;;31.95;19.63;;;9.10;99.90;;;;;;6099195;23;20014;-81
2021/11/25 05:49:07;;;;;;;32.42;19.35;;;9.10;99.90;;;;;;6099911;23;20602;-81
2021/11/25 05:51:35;;;;;;;38.85;21.70;;;9.10;99.90;;;;;;6099673;23;20022;-81
2021/11/25 05:54:02;;;;;;;33.60;20.20;;;9.10;99.90;;;;;;6125932;23;20025;-81
2021/11/25 05:56:54;;;;;;;168.82;84.97;;;9.30;99.90;;;;;;6124517;23;20017;-80
2021/11/25 05:59:22;;;;;;;84.00;47.78;;;9.50;99.90;;;;;;6123272;23;20022;-86
2021/11/25 06:10:40;;;;;;;27.42;17.15;;;9.30;99.90;;;;;;6048237;23;20032;-85
2021/11/25 06:13:16;;;;;;;27.63;17.10;;;9.30;99.90;;;;;;6125411;23;20396;-84
2021/11/25 06:15:46;;;;;;;30.30;18.83;;;9.30;99.90;;;;;;6099767;23;20072;-81
2021/11/25 06:18:15;;;;;;;53.85;33.83;;;9.30;99.90;;;;;;6123509;23;20049;-81
2021/11/25 06:20:42;;;;;;;49.38;30.20;;;9.60;99.90;;;;;;6123950;23;20451;-83
2021/11/25 06:23:10;;;;;;;74.95;43.17;;;9.60;99.90;;;;;;6097947;23;20079;-84
2021/11/25 06:25:37;;;;;;;160.80;85.00;;;9.60;99.90;;;;;;6124115;23;20065;-82
2021/11/25 06:28:04;;;;;;;52.85;33.35;;;9.80;99.90;;;;;;6098009;23;20110;-82
2021/11/25 06:30:31;;;;;;;36.72;22.20;;;9.60;99.90;;;;;;6123527;23;20344;-81
2021/11/25 06:32:59;;;;;;;34.03;21.30;;;9.40;99.90;;;;;;6096528;23;20405;-81
2021/11/25 06:35:26;;;;;;;34.63;22.48;;;9.30;99.90;;;;;;6073250;23;20093;-84
2021/11/25 06:37:55;;;;;;;32.92;21.25;;;9.20;99.90;;;;;;6097045;23;20101;-86
2021/11/25 06:40:29;;;;;;;36.13;21.02;;;9.20;99.90;;;;;;6125128;23;20069;-79
2021/11/25 06:46:55;;;;;;;32.45;21.35;;;9.30;99.90;;;;;;6100281;23;20010;-87
2021/11/25 06:53:18;;;;;;;29.73;18.15;;;9.40;99.90;;;;;;6144820;23;20029;-88
2021/11/25 06:55:48;;;;;;;30.83;18.15;;;9.40;99.90;;;;;;6098737;23;20018;-82
2021/11/25 06:58:15;;;;;;;89.28;46.42;;;9.40;99.90;;;;;;6124327;23;20014;-84
2021/11/25 07:01:03;;;;;;;180.93;95.28;;;9.80;99.90;;;;;;6100470;23;20080;-86
2021/11/25 07:03:33;;;;;;;40.50;27.17;;;10.30;99.90;;;;;;6102092;23;20448;-91
2021/11/25 07:06:12;;;;;;;29.33;20.02;;;10.00;99.90;;;;;;6103536;23;20022;-92
2021/11/25 07:08:50;;;;;;;30.38;20.10;;;9.70;99.90;;;;;;6100525;23;20049;-91
2021/11/25 07:11:18;;;;;;;31.17;19.45;;;9.30;99.90;;;;;;6104808;23;20052;-88
2021/11/25 07:13:58;;;;;;;32.67;19.47;;;9.40;99.90;;;;;;6129530;23;20073;-86
2021/11/25 07:17:19;;;;;;;32.28;20.08;;;9.50;99.90;;;;;;6091969;23;20300;-87
2021/11/25 07:23:01;;;;;;;31.08;18.23;;;9.50;99.90;;;;;;6058819;23;20077;-86
2021/11/25 07:25:28;;;;;;;30.10;20.25;;;9.50;99.90;;;;;;6093123;23;20014;-86
2021/11/25 07:27:56;;;;;;;31.10;20.80;;;9.60;99.90;;;;;;6075029;23;20029;-86
2021/11/25 07:30:25;;;;;;;29.33;19.07;;;9.60;99.90;;;;;;6101025;23;20450;-87
2021/11/25 07:32:56;;;;;;;33.35;20.80;;;9.70;99.90;;;;;;6100384;23;20248;-87
2021/11/25 07:35:24;;;;;;;28.60;19.23;;;9.70;99.90;;;;;;6076988;23;20018;-86
2021/11/25 07:38:10;;;;;;;29.50;18.42;;;9.70;99.90;;;;;;6075970;23;20025;-88
2021/11/25 07:41:28;;;;;;;31.48;18.13;;;9.80;99.90;;;;;;6099908;23;20022;-84
2021/11/25 07:43:55;;;;;;;26.35;16.58;;;9.80;99.90;;;;;;6125701;23;20396;-85
2021/11/25 07:46:37;;;;;;;23.45;16.08;;;9.80;99.90;;;;;;6099447;23;20028;-85
2021/11/25 07:49:20;;;;;;;23.67;15.20;;;9.80;99.90;;;;;;6111440;23;20069;-85
2021/11/25 07:52:01;;;;;;;20.42;14.73;;;9.80;99.90;;;;;;6115183;23;20052;-87
2021/11/25 07:54:30;;;;;;;25.02;15.43;;;9.90;99.90;;;;;;6101069;23;20018;-89
2021/11/25 07:56:59;;;;;;;22.80;15.68;;;9.90;99.90;;;;;;6126517;23;20018;-86
2021/11/25 07:59:40;;;;;;;22.90;14.43;;;9.90;99.90;;;;;;6123803;23;20022;-88
2021/11/25 08:02:08;;;;;;;19.33;13.30;;;9.80;99.90;;;;;;6101186;23;20077;-87
2021/11/25 08:05:48;;;;;;;22.92;13.82;;;9.70;99.90;;;;;;6093119;23;20070;-88
2021/11/25 08:08:16;;;;;;;22.75;14.18;;;9.70;99.90;;;;;;6100181;23;20029;-88
2021/11/25 08:11:02;;;;;;;23.92;14.52;;;9.70;99.90;;;;;;6096396;23;20018;-86
2021/11/25 08:13:42;;;;;;;23.05;14.63;;;9.80;99.90;;;;;;6071406;23;20330;-88
2021/11/25 08:16:14;;;;;;;25.38;15.43;;;9.90;99.90;;;;;;6070700;23;20357;-87
2021/11/25 08:19:07;;;;;;;23.58;15.25;;;9.80;99.90;;;;;;6096688;23;20223;-85
2021/11/25 08:21:35;;;;;;;24.48;15.23;;;9.90;99.90;;;;;;6096981;23;20384;-86
2021/11/25 08:24:03;;;;;;;25.15;16.30;;;10.00;99.90;;;;;;6070606;23;20082;-87
2021/11/25 08:26:30;;;;;;;24.45;16.15;;;10.00;99.90;;;;;;6067771;23;20018;-85
2021/11/25 08:29:03;;;;;;;25.73;15.88;;;10.10;99.90;;;;;;6043274;23;20070;-84
2021/11/25 08:31:30;;;;;;;25.33;16.10;;;10.10;99.90;;;;;;6067739;23;20406;-87
2021/11/25 08:33:58;;;;;;;26.45;16.48;;;10.00;99.90;;;;;;6041297;23;20058;-86
2021/11/25 08:36:43;;;;;;;28.25;17.85;;;10.10;99.90;;;;;;6068477;23;20371;-87
2021/11/25 08:39:11;;;;;;;26.50;16.13;;;10.10;99.90;;;;;;6041782;23;20023;-88
2021/11/25 08:41:38;;;;;;;25.35;15.88;;;10.20;99.90;;;;;;6067758;23;20074;-86
2021/11/25 08:44:19;;;;;;;23.63;15.55;;;10.30;99.90;;;;;;6064469;23;20022;-88
2021/11/25 08:46:46;;;;;;;23.67;15.65;;;10.40;99.90;;;;;;6067445;23;20049;-88
2021/11/25 08:49:16;;;;;;;19.85;14.07;;;10.40;99.90;;;;;;6068383;23;20023;-87
2021/11/25 08:51:44;;;;;;;18.33;13.17;;;10.40;99.90;;;;;;6042799;23;20019;-87
2021/11/25 08:54:11;;;;;;;23.85;14.02;;;10.40;99.90;;;;;;6043450;23;20026;-85
2021/11/25 08:56:39;;;;;;;21.48;14.27;;;10.50;99.90;;;;;;6042588;23;20075;-87
2021/11/25 08:59:06;;;;;;;21.58;13.77;;;10.60;99.90;;;;;;6067289;23;20023;-88
2021/11/25 09:01:33;;;;;;;20.92;14.02;;;10.60;99.90;;;;;;6067361;23;20023;-86
2021/11/25 09:04:01;;;;;;;18.52;12.43;;;10.70;99.90;;;;;;6041758;23;20023;-89
2021/11/25 09:06:30;;;;;;;20.80;13.43;;;10.80;99.90;;;;;;6043232;23;20083;-89
2021/11/25 09:08:59;;;;;;;19.15;13.57;;;10.80;99.90;;;;;;6066228;23;20103;-86
2021/11/25 09:11:35;;;;;;;18.25;12.13;;;10.90;99.90;;;;;;6067693;23;20099;-87
2021/11/25 09:14:03;;;;;;;19.33;12.05;;;10.90;99.90;;;;;;6065816;23;20042;-89
2021/11/25 09:16:37;;;;;;;19.48;12.10;;;10.80;99.90;;;;;;6041757;23;20378;-87
2021/11/25 09:19:07;;;;;;;18.27;12.27;;;10.90;99.90;;;;;;6042858;23;20071;-86
2021/11/25 09:21:35;;;;;;;;;;;10.80;99.90;;;;;;6017634;23;20109;-80
2021/11/25 09:24:04;;;;;;;24.45;14.88;;;11.00;99.90;;;;;;6065896;23;19917;-82
2021/11/25 09:26:37;;;;;;;22.43;13.87;;;11.30;99.90;;;;;;6041050;23;20102;-81
2021/11/25 09:29:06;;;;;;;20.40;13.90;;;11.20;99.90;;;;;;6065113;23;20398;-82
2021/11/25 09:31:34;;;;;;;19.42;12.70;;;11.40;99.90;;;;;;6017180;23;20050;-81
2021/11/25 09:34:03;;;;;;;20.58;12.75;;;11.50;99.90;;;;;;6066652;23;20015;-82
2021/11/25 09:36:34;;;;;;;18.52;12.05;;;11.60;99.90;;;;;;6066242;23;20019;-82
2021/11/25 09:39:08;;;;;;;20.10;13.00;;;11.70;99.90;;;;;;6040390;23;20027;-87
2021/11/25 09:41:37;;;;;;;17.63;11.40;;;11.80;99.90;;;;;;6042793;23;20360;-82
2021/11/25 09:44:06;;;;;;;15.40;10.45;;;12.00;99.90;;;;;;6018106;23;20086;-80
2021/11/25 09:46:38;;;;;;;15.98;9.77;;;12.00;99.90;;;;;;6040802;23;20101;-82
2021/11/25 09:49:05;;;;;;;16.42;10.13;;;12.10;99.90;;;;;;6041409;23;20052;-85
2021/11/25 09:51:40;;;;;;;14.50;9.38;;;12.20;99.90;;;;;;6066490;23;20115;-82
2021/11/25 09:54:08;;;;;;;11.18;8.00;;;12.10;99.90;;;;;;6042125;23;20114;-90
2021/11/25 09:56:44;;;;;;;14.43;9.18;;;12.10;99.90;;;;;;6044351;23;20027;-86
2021/11/25 09:59:38;;;;;;;12.82;8.35;;;11.80;99.90;;;;;;6047302;23;20390;-87
2021/11/25 10:02:13;;;;;;;14.20;10.02;;;11.70;99.90;;;;;;6047394;23;20018;-88
2021/11/25 10:05:08;;;;;;;18.05;10.30;;;11.30;99.90;;;;;;6013036;23;20026;-86
2021/11/25 10:08:17;;;;;;;16.48;10.02;;;11.30;99.90;;;;;;6040790;23;20026;-86
2021/11/25 10:10:44;;;;;;;13.65;8.88;;;11.40;99.90;;;;;;6013804;23;20024;-86
2021/11/25 10:13:17;;;;;;;11.93;7.68;;;11.50;99.90;;;;;;6002670;23;20023;-83
2021/11/25 10:15:45;;;;;;;14.90;8.88;;;11.50;99.90;;;;;;5990143;23;20083;-84
2021/11/25 10:18:15;;;;;;;12.20;7.97;;;11.40;99.90;;;;;;6036170;23;20027;-82
2021/11/25 10:20:50;;;;;;;13.20;8.50;;;11.40;99.90;;;;;;6037879;23;20023;-83
2021/11/25 10:23:26;;;;;;;13.45;8.68;;;11.40;99.90;;;;;;6013249;23;20031;-87
2021/11/25 10:26:04;;;;;;;12.93;8.45;;;11.40;99.90;;;;;;6035547;23;20136;-82
2021/11/25 10:28:40;;;;;;;12.05;8.32;;;11.50;99.90;;;;;;6008338;23;20075;-81
2021/11/25 10:31:16;;;;;;;11.50;7.80;;;11.50;99.90;;;;;;6010897;23;20023;-79
2021/11/25 10:40:13;;;;;;;11.57;7.30;;;11.50;99.90;;;;;;6121771;23;20527;-86
2021/11/25 10:43:20;;;;;;;11.50;7.57;;;11.20;99.90;;;;;;6098584;23;20026;-85
2021/11/25 10:45:54;;;;;;;10.48;7.53;;;11.20;99.90;;;;;;6098256;23;20026;-84
2021/11/25 10:52:04;;;;;;;12.25;7.85;;;11.40;99.90;;;;;;6127085;23;20014;-84
2021/11/25 10:54:33;;;;;;;13.77;7.83;;;11.60;99.90;;;;;;6102042;23;20359;-85
2021/11/25 10:57:02;;;;;;;10.73;7.32;;;11.60;99.90;;;;;;6128130;23;20248;-85
2021/11/25 10:59:46;;;;;;;12.77;7.85;;;11.40;99.90;;;;;;6092399;23;20022;-88
2021/11/25 11:02:23;;;;;;;15.40;7.95;;;11.40;99.90;;;;;;6100893;23;20423;-85
2021/11/25 11:04:51;;;;;;;14.43;7.90;;;11.50;99.90;;;;;;6101585;23;20018;-85
2021/11/25 11:07:35;;;;;;;12.32;7.88;;;11.50;99.90;;;;;;6100644;23;20399;-84
2021/11/25 11:10:23;;;;;;;13.75;8.05;;;11.40;99.90;;;;;;6101319;23;20022;-84
2021/11/25 11:13:00;;;;;;;12.25;8.75;;;11.50;99.90;;;;;;6101350;23;20102;-84
2021/11/25 11:15:47;;;;;;;11.07;8.18;;;11.50;99.90;;;;;;6100038;23;20106;-81
2021/11/25 11:20:50;;;;;;;;;;;11.50;99.90;;;;;;6125673;23;20042;-79
2021/11/25 11:23:22;;;;;;;10.52;7.72;;;11.50;99.90;;;;;;6099001;23;19928;-79
2021/11/25 11:25:52;;;;;;;11.73;7.65;;;11.70;99.90;;;;;;6099629;23;20018;-80
2021/11/25 11:28:20;;;;;;;11.30;7.72;;;11.90;99.90;;;;;;6098465;23;20018;-79
2021/11/25 11:30:49;;;;;;;14.07;8.35;;;11.90;99.90;;;;;;6124854;23;20040;-78
2021/11/25 11:33:28;;;;;;;12.38;8.05;;;11.90;99.90;;;;;;6098790;23;20041;-84
2021/11/25 11:35:57;;;;;;;11.15;7.30;;;11.90;99.90;;;;;;6099100;23;20469;-82
2021/11/25 11:38:29;;;;;;;11.50;7.63;;;12.20;99.90;;;;;;6124213;23;20341;-83
2021/11/25 11:40:57;;;;;;;16.55;8.15;;;12.50;99.90;;;;;;6125287;23;20400;-84
2021/11/25 11:43:26;;;;;;;13.00;8.15;;;12.60;99.90;;;;;;6098940;23;20071;-84
2021/11/25 11:45:54;;;;;;;11.77;8.23;;;12.60;99.90;;;;;;6098660;23;20033;-84
2021/11/25 11:48:23;;;;;;;10.35;7.85;;;12.30;99.90;;;;;;6122985;23;20046;-81
2021/11/25 11:50:54;;;;;;;13.90;8.02;;;12.20;99.90;;;;;;6124184;23;20018;-80
2021/11/25 11:53:23;;;;;;;;;;;12.10;99.90;;;;;;6125474;23;20018;-80
2021/11/25 11:56:01;;;;;;;10.00;7.45;;;12.10;99.90;;;;;;6125322;23;19996;-81
2021/11/25 11:58:39;;;;;;;13.77;8.40;;;12.00;99.90;;;;;;6075729;23;20029;-79
2021/11/25 12:01:20;;;;;;;11.73;7.57;;;11.80;99.90;;;;;;6124893;23;20097;-80
2021/11/25 12:03:51;;;;;;;14.25;7.88;;;11.80;99.90;;;;;;6124746;23;20022;-82
2021/11/25 12:06:44;;;;;;;13.68;8.57;;;11.70;99.90;;;;;;6097949;23;20022;-82
2021/11/25 12:09:12;;;;;;;13.02;8.30;;;11.80;99.90;;;;;;6100236;23;20398;-84
2021/11/25 12:11:45;;;;;;;13.93;9.35;;;11.70;99.90;;;;;;6125294;23;20384;-81
2021/11/25 12:14:22;;;;;;;15.20;8.50;;;11.70;99.90;;;;;;6124804;23;20026;-84
2021/11/25 12:16:57;;;;;;;14.27;8.73;;;11.80;99.90;;;;;;6101699;23;20116;-85
2021/11/25 12:19:38;;;;;;;13.70;8.50;;;11.70;99.90;;;;;;6125951;23;20014;-85
2021/11/25 12:22:11;;;;;;;;;;;11.80;99.90;;;;;;6127188;23;20046;-88
2021/11/25 12:24:46;;;;;;;12.90;7.80;;;11.80;99.90;;;;;;6126896;23;20250;-84
2021/11/25 12:27:26;;;;;;;13.63;9.30;;;11.80;99.90;;;;;;6101185;23;20097;-86
2021/11/25 12:30:04;;;;;;;14.48;8.80;;;11.80;99.90;;;;;;6125350;23;20420;-83
2021/11/25 12:32:41;;;;;;;15.48;8.85;;;11.70;99.90;;;;;;6099363;23;20022;-85
2021/11/25 12:35:18;;;;;;;13.65;8.52;;;11.80;99.90;;;;;;6127401;23;20088;-89
2021/11/25 12:37:49;;;;;;;14.30;9.40;;;11.80;99.90;;;;;;6125983;23;20034;-87
2021/11/25 12:40:44;;;;;;;12.68;8.68;;;11.70;99.90;;;;;;6099405;23;20483;-87
2021/11/25 12:43:19;;;;;;;16.08;9.38;;;11.70;99.90;;;;;;6125797;23;20018;-83
2021/11/25 12:45:58;;;;;;;14.30;9.07;;;11.80;99.90;;;;;;6101024;23;20089;-88
2021/11/25 12:48:28;;;;;;;12.82;8.30;;;11.70;99.90;;;;;;6125577;23;20393;-85
2021/11/25 12:51:00;;;;;;;11.02;7.90;;;11.70;99.90;;;;;;6125728;23;20399;-84
2021/11/25 12:53:36;;;;;;;11.38;7.97;;;11.70;99.90;;;;;;6125174;23;20089;-84
2021/11/25 12:56:11;;;;;;;12.63;8.55;;;11.50;99.90;;;;;;6124636;23;20069;-84
2021/11/25 12:58:54;;;;;;;12.43;8.63;;;11.60;99.90;;;;;;6098254;23;20356;-83
2021/11/25 13:01:26;;;;;;;12.15;8.15;;;11.60;99.90;;;;;;6124973;23;20074;-83
2021/11/25 13:04:08;;;;;;;13.82;9.00;;;11.50;99.90;;;;;;6125441;23;20021;-87
2021/11/25 13:06:43;;;;;;;12.15;8.07;;;11.60;99.90;;;;;;6100366;23;20022;-85
2021/11/25 13:09:17;;;;;;;10.27;7.43;;;11.50;99.90;;;;;;6125789;23;20097;-81
2021/11/25 13:11:46;;;;;;;11.02;7.50;;;11.60;99.90;;;;;;6125131;23;20018;-84
2021/11/25 13:14:26;;;;;;;12.60;8.10;;;11.60;99.90;;;;;;6126393;23;20041;-84
2021/11/25 13:16:56;;;;;;;12.23;8.13;;;11.60;99.90;;;;;;6126348;23;20041;-84
2021/11/25 13:19:25;;;;;;;11.38;7.80;;;11.60;99.90;;;;;;6126668;23;20093;-85
2021/11/25 13:22:07;;;;;;;11.88;8.23;;;11.50;99.90;;;;;;6100405;23;20473;-84
2021/11/25 13:24:40;;;;;;;13.82;7.97;;;11.50;99.90;;;;;;6102668;23;20073;-85
2021/11/25 13:27:13;;;;;;;12.18;8.60;;;11.50;99.90;;;;;;6098701;23;20352;-84
2021/11/25 13:29:56;;;;;;;12.38;8.20;;;11.40;99.90;;;;;;6122442;23;20332;-83
2021/11/25 13:32:33;;;;;;;12.20;8.30;;;11.40;99.90;;;;;;6099239;23;20637;-88
2021/11/25 13:35:21;;;;;;;12.70;7.97;;;11.40;99.90;;;;;;6075040;23;20033;-91
2021/11/25 13:38:23;;;;;;;15.68;7.57;;;11.50;99.90;;;;;;6102160;23;20021;-87
2021/11/25 13:40:46;;;;;;;13.32;7.78;;;11.50;99.90;;;;;;6125032;23;20018;-91
2021/11/25 13:44:16;;;;;;;12.57;8.25;;;11.30;99.90;;;;;;6077829;23;20100;-89
2021/11/25 13:47:31;;;;;;;15.18;8.38;;;11.20;99.90;;;;;;6126835;23;20036;-84
2021/11/25 13:50:13;;;;;;;15.80;9.00;;;11.00;99.90;;;;;;6041077;23;20106;-87
2021/11/25 13:53:05;;;;;;;13.95;8.18;;;11.00;99.90;;;;;;6037783;23;20329;-91
2021/11/25 14:00:22;;;;;;;;;;;;;;;;;;;;;
2021/11/25 14:03:02;;;;;;;15.32;7.10;;;10.90;99.90;;;;;;6036140;23;20076;-90
2021/11/25 14:05:58;;;;;;;11.85;7.60;;;11.00;99.90;;;;;;6066404;23;20014;-89
2021/11/25 14:08:32;;;;;;;11.55;7.75;;;11.00;99.90;;;;;;6092393;23;20023;-86
2021/11/25 14:18:33;;;;;;;11.20;7.10;;;11.00;99.90;;;;;;6060655;23;20026;-90
2021/11/25 14:25:38;;;;;;;16.50;8.90;;;10.80;99.90;;;;;;6138822;23;20098;-84
2021/11/25 14:31:32;;;;;;;12.73;7.57;;;10.70;99.90;;;;;;6128759;23;20108;-86
2021/11/25 14:34:04;;;;;;;12.63;7.50;;;10.70;99.90;;;;;;6128691;23;20087;-88
2021/11/25 14:36:40;;;;;;;11.07;7.68;;;10.70;99.90;;;;;;6133084;23;20024;-87
2021/11/25 14:39:19;;;;;;;13.55;7.22;;;10.60;99.90;;;;;;6159355;23;20030;-89
2021/11/25 14:46:16;;;;;;;9.85;7.43;;;10.70;99.90;;;;;;6139130;23;20513;-88
2021/11/25 14:51:34;;;;;;;10.00;7.20;;;10.60;99.90;;;;;;6127530;23;20081;-87
2021/11/25 14:54:29;;;;;;;9.18;6.53;;;10.70;99.90;;;;;;6099859;23;20069;-85
2021/11/25 14:56:56;;;;;;;13.27;7.32;;;10.60;99.90;;;;;;6099970;23;20045;-87
2021/11/25 15:06:46;;;;;;;13.02;7.57;;;10.90;99.90;;;;;;6130456;23;20064;-90
2021/11/25 15:09:19;;;;;;;10.63;7.57;;;10.90;99.90;;;;;;6088756;23;20034;-94
2021/11/25 15:12:37;;;;;;;10.77;7.35;;;10.60;99.90;;;;;;6069569;23;20059;-92
2021/11/25 15:33:29;;;;;;;9.18;7.10;;;10.30;99.90;;;;;;6096146;23;20043;-87
2021/11/25 15:36:13;;;;;;;10.90;7.15;;;10.20;99.90;;;;;;6070519;23;20019;-89
2021/11/25 15:38:54;;;;;;;14.15;7.65;;;10.30;99.90;;;;;;6071258;23;20352;-86
2021/11/25 15:41:22;;;;;;;9.80;7.20;;;10.20;99.90;;;;;;6070276;23;20033;-86
2021/11/25 15:44:10;;;;;;;12.30;7.53;;;10.10;99.90;;;;;;6075549;23;20022;-89
2021/11/25 15:46:37;;;;;;;12.10;7.78;;;10.10;99.90;;;;;;6046720;23;20018;-85
2021/11/25 15:49:05;;;;;;;13.63;7.47;;;10.20;99.90;;;;;;6047472;23;20093;-86
2021/11/25 15:52:05;;;;;;;13.50;8.38;;;10.20;99.90;;;;;;6095703;23;20025;-86
2021/11/25 15:54:32;;;;;;;12.18;7.65;;;10.20;99.90;;;;;;6070713;23;20348;-85
2021/11/25 16:00:42;;;;;;;12.77;7.70;;;10.10;99.90;;;;;;6069945;23;20049;-87
2021/11/25 16:03:58;;;;;;;11.80;7.80;;;10.10;99.90;;;;;;6112094;23;20024;-87
2021/11/25 16:06:26;;;;;;;12.07;7.72;;;10.10;99.90;;;;;;6158620;23;20080;-86